Terminal Aerodrome Forecast
Issued by NWS

Home | Current Version | Previous Version | Text Only | Print | Product List | Glossary Off
Versions: 1 2 3 4 5 6 7 8 9 10 11 12

000
FTUS45 KRIW 220500
TAFCPR
TAF
KCPR 220539Z 2206/2306 29012G18KT P6SM VCSH SCT035 BKN060
     FM220800 28013G21KT P6SM SCT070
     FM222000 29015G25KT P6SM VCSH SCT050 OVC100=

USA.gov is the U.S. government's official web portal to all federal, state and local government web resources and services.